Time;durP1;ratioP1;P1;durP2;ratioP2;P2;SDS_P1;SDS_P2;PMS_P1;PMS_P2;Temp;Humidity;BMP_temperature;BMP_pressure;BME280_temperature;BME280_humidity;BME280_pressure;Samples;Min_cycle;Max_cycle;Signal;HPM_P1;HPM_P2
2023/12/04 00:00:48;;;;;;;8.88;5.95;;;22.60;48.00;;;;;;5068404;28;20170;-69
2023/12/04 00:03:14;;;;;;;12.20;6.60;;;22.60;47.90;;;;;;5062625;28;20109;-69
2023/12/04 00:05:43;;;;;;;10.00;6.65;;;22.50;47.90;;;;;;5073988;28;20460;-69
2023/12/04 00:08:10;;;;;;;12.95;6.80;;;22.60;47.90;;;;;;5072372;28;20032;-68
2023/12/04 00:10:36;;;;;;;9.63;6.15;;;22.50;47.90;;;;;;5072576;28;20040;-68
2023/12/04 00:13:02;;;;;;;10.20;6.25;;;22.50;47.90;;;;;;5070901;28;20090;-68
2023/12/04 00:15:28;;;;;;;10.57;6.25;;;22.50;47.90;;;;;;5066337;28;20140;-69
2023/12/04 00:17:54;;;;;;;7.40;5.13;;;22.50;47.80;;;;;;5054127;28;20040;-69
2023/12/04 00:20:20;;;;;;;10.55;6.03;;;22.50;47.80;;;;;;5053929;28;20354;-68
2023/12/04 00:22:46;;;;;;;8.45;5.93;;;22.50;47.80;;;;;;5036867;28;20033;-69
2023/12/04 00:25:12;;;;;;;9.48;6.60;;;22.40;47.70;;;;;;5062654;28;20090;-69
2023/12/04 00:27:38;;;;;;;9.32;5.75;;;22.40;47.80;;;;;;5071962;28;20042;-69
2023/12/04 00:30:05;;;;;;;11.88;6.63;;;22.40;47.80;;;;;;5073438;28;20024;-66
2023/12/04 00:32:31;;;;;;;9.15;6.72;;;22.40;47.70;;;;;;5021677;28;20119;-68
2023/12/04 00:34:57;;;;;;;9.23;5.45;;;22.40;47.60;;;;;;5067644;28;20124;-69
2023/12/04 00:37:24;;;;;;;10.00;6.40;;;22.30;47.50;;;;;;5040887;28;20041;-69
2023/12/04 00:39:50;;;;;;;8.23;5.50;;;22.40;47.50;;;;;;5035712;28;20036;-68
2023/12/04 00:42:16;;;;;;;9.13;5.82;;;22.50;47.50;;;;;;5055250;28;20074;-69
2023/12/04 00:44:42;;;;;;;10.23;6.90;;;22.40;47.40;;;;;;5071477;28;20040;-70
2023/12/04 00:47:08;;;;;;;11.63;5.97;;;22.50;47.40;;;;;;5036840;28;20076;-69
2023/12/04 00:49:34;;;;;;;8.52;6.57;;;22.50;47.40;;;;;;5052979;28;20041;-69
2023/12/04 00:52:00;;;;;;;10.98;6.63;;;22.40;47.30;;;;;;5061104;28;20041;-69
2023/12/04 00:54:26;;;;;;;10.90;7.18;;;22.40;47.20;;;;;;5036444;28;20044;-68
2023/12/04 00:56:52;;;;;;;11.18;7.10;;;22.50;47.30;;;;;;5053482;28;20028;-68
2023/12/04 00:59:18;;;;;;;11.43;6.93;;;22.50;47.30;;;;;;5073139;28;20036;-68
2023/12/04 01:01:44;;;;;;;11.30;6.70;;;22.40;47.20;;;;;;5067776;28;20036;-68
2023/12/04 01:04:10;;;;;;;10.90;6.60;;;22.30;47.20;;;;;;5032597;28;20503;-69
2023/12/04 01:06:36;;;;;;;13.80;7.07;;;22.30;47.10;;;;;;5052901;28;20056;-69
2023/12/04 01:09:02;;;;;;;13.30;6.45;;;22.20;47.00;;;;;;5036713;28;20384;-68
2023/12/04 01:11:28;;;;;;;10.02;6.68;;;22.30;47.20;;;;;;5019250;28;20080;-67
2023/12/04 01:13:54;;;;;;;9.75;6.32;;;22.20;47.10;;;;;;5055441;28;20032;-69
2023/12/04 01:16:20;;;;;;;13.13;6.90;;;22.10;47.00;;;;;;5063261;28;20045;-69
2023/12/04 01:18:46;;;;;;;11.80;6.60;;;22.20;47.00;;;;;;5061195;28;20032;-69
2023/12/04 01:21:12;;;;;;;10.27;6.65;;;22.10;47.10;;;;;;5026771;28;20396;-69
2023/12/04 01:23:38;;;;;;;12.38;6.38;;;22.10;47.10;;;;;;5070653;28;20121;-69
2023/12/04 01:26:04;;;;;;;11.00;6.65;;;22.20;47.00;;;;;;5072706;28;20040;-69
2023/12/04 01:28:30;;;;;;;13.90;7.00;;;22.20;46.90;;;;;;5064050;28;20106;-67
2023/12/04 01:30:56;;;;;;;10.52;6.88;;;22.20;46.90;;;;;;5055052;28;20506;-68
2023/12/04 01:33:23;;;;;;;12.15;7.43;;;22.30;46.90;;;;;;5052718;28;20032;-68
2023/12/04 01:35:49;;;;;;;11.60;6.97;;;22.40;46.90;;;;;;5070799;28;20031;-69
2023/12/04 01:38:15;;;;;;;10.60;7.05;;;22.40;46.80;;;;;;5071737;28;20024;-68
2023/12/04 01:40:41;;;;;;;10.18;7.47;;;22.30;46.70;;;;;;5072369;28;20052;-69
2023/12/04 01:43:07;;;;;;;14.57;7.03;;;22.40;46.60;;;;;;5063410;28;20025;-68
2023/12/04 01:45:33;;;;;;;11.45;7.10;;;22.40;46.60;;;;;;5057213;28;20036;-68
2023/12/04 01:47:59;;;;;;;14.93;7.93;;;22.30;46.50;;;;;;5069109;28;20107;-69
2023/12/04 01:50:25;;;;;;;13.93;8.48;;;22.40;46.50;;;;;;5072072;28;20048;-69
2023/12/04 01:52:53;;;;;;;13.70;7.78;;;22.30;46.50;;;;;;5072188;28;20052;-68
2023/12/04 01:55:21;;;;;;;13.57;7.70;;;22.20;46.30;;;;;;5021525;28;20404;-69
2023/12/04 01:57:48;;;;;;;15.73;7.88;;;22.10;46.30;;;;;;5055285;28;20033;-68
2023/12/04 02:00:14;;;;;;;13.82;8.15;;;22.30;46.50;;;;;;5053557;28;20036;-69
2023/12/04 02:02:44;;;;;;;11.90;7.13;;;22.20;46.40;;;;;;5051360;28;20135;-69
2023/12/04 02:05:12;;;;;;;14.43;8.20;;;22.20;46.40;;;;;;5016743;28;20045;-71
2023/12/04 02:07:40;;;;;;;12.13;6.78;;;22.10;46.40;;;;;;5069842;28;20400;-70
2023/12/04 02:10:07;;;;;;;13.13;7.05;;;22.00;46.40;;;;;;5071562;28;20040;-69
2023/12/04 02:12:33;;;;;;;12.10;6.60;;;22.10;46.50;;;;;;5036321;28;20420;-69
2023/12/04 02:14:59;;;;;;;11.35;6.43;;;22.10;46.50;;;;;;5053893;28;20045;-70
2023/12/04 02:17:27;;;;;;;11.15;7.75;;;22.00;46.30;;;;;;5051434;28;20033;-69
2023/12/04 02:19:54;;;;;;;11.52;6.78;;;22.00;46.30;;;;;;5051891;28;20045;-70
2023/12/04 02:22:20;;;;;;;11.27;7.13;;;22.10;46.40;;;;;;5051949;28;20036;-69
2023/12/04 02:24:47;;;;;;;12.93;8.40;;;21.90;46.30;;;;;;5053889;28;20029;-68
2023/12/04 02:27:26;;;;;;;13.75;7.65;;;21.90;46.30;;;;;;5051511;28;20117;-70
2023/12/04 02:30:22;;;;;;;11.25;7.70;;;22.00;46.30;;;;;;5045600;28;20549;-71
2023/12/04 02:32:48;;;;;;;11.52;7.35;;;21.90;46.30;;;;;;5047696;28;20041;-68
2023/12/04 02:35:20;;;;;;;14.75;8.38;;;21.90;46.30;;;;;;5041725;28;20132;-70
2023/12/04 02:37:47;;;;;;;12.05;8.02;;;21.90;46.30;;;;;;5028071;28;20049;-71
2023/12/04 02:40:13;;;;;;;13.48;8.27;;;21.80;46.30;;;;;;5028900;28;20029;-69
2023/12/04 02:42:39;;;;;;;13.35;8.55;;;21.80;46.30;;;;;;5029998;28;20037;-68
2023/12/04 02:45:06;;;;;;;12.18;7.60;;;21.80;46.40;;;;;;5036502;28;20033;-69
2023/12/04 02:47:32;;;;;;;17.00;7.70;;;21.90;46.40;;;;;;5031869;28;20503;-69
2023/12/04 02:49:58;;;;;;;16.38;7.85;;;21.80;46.30;;;;;;5048552;28;20044;-69
2023/12/04 02:52:24;;;;;;;14.55;7.55;;;21.90;46.30;;;;;;5048656;28;20060;-70
2023/12/04 02:54:50;;;;;;;10.63;6.72;;;22.00;46.10;;;;;;5039676;28;20105;-69
2023/12/04 02:57:16;;;;;;;11.10;6.13;;;21.90;46.10;;;;;;5028815;28;20042;-70
2023/12/04 02:59:42;;;;;;;10.68;7.47;;;22.00;46.00;;;;;;5045307;28;20040;-69
2023/12/04 03:02:08;;;;;;;13.57;6.55;;;22.00;45.90;;;;;;5031594;28;20537;-70
2023/12/04 03:04:35;;;;;;;10.07;6.35;;;22.00;45.90;;;;;;5048056;28;20124;-69
2023/12/04 03:07:01;;;;;;;10.15;6.45;;;22.00;45.80;;;;;;5050769;28;20600;-70
2023/12/04 03:09:27;;;;;;;10.38;6.82;;;22.20;45.70;;;;;;5050824;28;20091;-71
2023/12/04 03:11:53;;;;;;;9.98;7.18;;;22.10;45.60;;;;;;5055369;28;20040;-70
2023/12/04 03:14:19;;;;;;;11.40;7.32;;;22.20;45.50;;;;;;5009524;28;20401;-70
2023/12/04 03:16:45;;;;;;;9.23;6.47;;;22.20;45.40;;;;;;5051839;28;20475;-71
2023/12/04 03:19:12;;;;;;;12.23;7.22;;;22.20;45.30;;;;;;5001132;28;20049;-69
2023/12/04 03:21:37;;;;;;;12.15;7.05;;;22.10;45.30;;;;;;5070917;28;20448;-69
2023/12/04 03:24:04;;;;;;;16.65;7.45;;;22.30;45.30;;;;;;5060233;28;20033;-70
2023/12/04 03:26:30;;;;;;;10.52;7.07;;;22.20;45.20;;;;;;5032983;28;20067;-69
2023/12/04 03:28:56;;;;;;;15.65;7.75;;;22.30;45.20;;;;;;5051799;28;20730;-69
2023/12/04 03:31:23;;;;;;;12.10;7.43;;;22.30;45.20;;;;;;5061129;28;20040;-70
2023/12/04 03:33:49;;;;;;;11.65;7.93;;;22.30;45.10;;;;;;5060357;28;20140;-69
2023/12/04 03:36:15;;;;;;;12.95;7.70;;;22.30;45.00;;;;;;5051404;28;20037;-70
2023/12/04 03:38:41;;;;;;;14.80;7.47;;;22.30;45.00;;;;;;5050685;28;20029;-70
2023/12/04 03:41:16;;;;;;;11.80;7.00;;;22.20;44.80;;;;;;5050943;28;20043;-70
2023/12/04 03:43:42;;;;;;;13.70;7.75;;;22.20;44.70;;;;;;5051691;28;20060;-71
2023/12/04 03:46:08;;;;;;;12.32;8.00;;;22.30;44.80;;;;;;5058218;28;20521;-70
2023/12/04 03:48:34;;;;;;;9.98;7.25;;;22.40;44.80;;;;;;5024164;28;20068;-70
2023/12/04 03:51:01;;;;;;;11.88;7.45;;;22.30;44.70;;;;;;5064384;28;20060;-70
2023/12/04 03:53:27;;;;;;;12.05;7.55;;;22.30;44.70;;;;;;5070468;28;20411;-69
2023/12/04 03:55:53;;;;;;;13.48;7.72;;;22.30;44.70;;;;;;5069001;28;20047;-69
2023/12/04 03:58:19;;;;;;;13.13;6.80;;;22.30;44.70;;;;;;5064268;28;20030;-70
2023/12/04 04:00:45;;;;;;;10.48;7.25;;;22.40;44.60;;;;;;5055877;28;20511;-68
2023/12/04 04:03:11;;;;;;;12.25;6.93;;;22.30;44.60;;;;;;5070623;28;20033;-70
2023/12/04 04:05:37;;;;;;;13.05;8.30;;;22.30;44.60;;;;;;5050838;28;20033;-69
2023/12/04 04:08:05;;;;;;;15.18;8.48;;;22.30;44.50;;;;;;5057132;28;20072;-71
2023/12/04 04:10:31;;;;;;;13.95;9.55;;;22.30;44.60;;;;;;5054336;28;20044;-70
2023/12/04 04:12:58;;;;;;;14.20;9.48;;;22.30;44.60;;;;;;5068889;28;20769;-70
2023/12/04 04:15:24;;;;;;;10.18;7.47;;;22.30;44.60;;;;;;5061750;28;20033;-70
2023/12/04 04:17:50;;;;;;;12.32;6.93;;;22.20;44.50;;;;;;5059610;28;20045;-70
2023/12/04 04:20:16;;;;;;;12.13;7.95;;;22.30;44.50;;;;;;5069759;28;20040;-70
2023/12/04 04:22:42;;;;;;;13.10;8.40;;;22.30;44.50;;;;;;5059982;28;20035;-69
2023/12/04 04:25:09;;;;;;;13.18;7.95;;;22.30;44.40;;;;;;5062661;28;20040;-70
2023/12/04 04:27:35;;;;;;;14.50;8.25;;;22.40;44.40;;;;;;5073541;28;20021;-69
2023/12/04 04:30:02;;;;;;;10.38;7.28;;;22.30;44.40;;;;;;5072377;28;20409;-71
2023/12/04 04:32:28;;;;;;;16.73;7.95;;;22.20;44.20;;;;;;5073646;28;20071;-70
2023/12/04 04:34:54;;;;;;;15.23;9.07;;;22.40;44.30;;;;;;5052523;28;20024;-69
2023/12/04 04:37:20;;;;;;;12.45;9.10;;;22.30;44.30;;;;;;5054680;28;20037;-68
2023/12/04 04:39:46;;;;;;;14.25;8.68;;;22.30;44.30;;;;;;5070201;28;20181;-70
2023/12/04 04:42:12;;;;;;;12.82;9.13;;;22.10;44.30;;;;;;5060142;28;20125;-70
2023/12/04 04:44:38;;;;;;;11.77;8.55;;;22.10;44.20;;;;;;5065648;28;20029;-70
2023/12/04 04:47:04;;;;;;;17.40;9.23;;;22.10;44.30;;;;;;5071708;28;20036;-66
2023/12/04 04:49:30;;;;;;;15.95;8.20;;;22.10;44.20;;;;;;5055143;28;20574;-70
2023/12/04 04:51:56;;;;;;;16.45;9.57;;;22.00;44.10;;;;;;5072704;28;20135;-70
2023/12/04 04:54:22;;;;;;;35.05;21.60;;;22.00;44.20;;;;;;5071902;28;20052;-70
2023/12/04 04:56:48;;;;;;;16.90;11.45;;;22.00;44.20;;;;;;5072078;28;20137;-70
2023/12/04 04:59:14;;;;;;;19.98;10.23;;;22.00;44.20;;;;;;5061389;28;20099;-70
2023/12/04 05:01:40;;;;;;;17.50;10.30;;;22.00;44.30;;;;;;5056782;28;20025;-70
2023/12/04 05:04:06;;;;;;;17.60;8.88;;;21.90;44.30;;;;;;5061853;28;20515;-72
2023/12/04 05:06:32;;;;;;;13.93;8.02;;;22.00;44.10;;;;;;5066809;28;20040;-70
2023/12/04 05:08:58;;;;;;;13.55;8.82;;;22.00;44.10;;;;;;5053007;28;20029;-70
2023/12/04 05:11:24;;;;;;;12.65;9.25;;;22.00;44.00;;;;;;5054110;28;20457;-68
2023/12/04 05:13:50;;;;;;;17.00;9.10;;;22.10;43.90;;;;;;5056358;28;20033;-70
2023/12/04 05:16:17;;;;;;;13.27;8.20;;;22.20;43.90;;;;;;5059463;28;20060;-71
2023/12/04 05:18:44;;;;;;;12.68;8.68;;;22.20;43.80;;;;;;5020791;28;20098;-70
2023/12/04 05:21:11;;;;;;;13.80;8.73;;;22.10;43.70;;;;;;5071052;28;20086;-69
2023/12/04 05:23:40;;;;;;;14.70;9.18;;;22.20;43.60;;;;;;5060961;28;20390;-70
2023/12/04 05:26:07;;;;;;;15.88;9.13;;;22.10;43.60;;;;;;5053724;28;20041;-70
2023/12/04 05:28:34;;;;;;;18.50;9.63;;;22.10;43.60;;;;;;5053682;28;20527;-69
2023/12/04 05:31:00;;;;;;;15.10;10.18;;;22.10;43.60;;;;;;5035960;28;20033;-69
2023/12/04 05:33:27;;;;;;;20.77;10.52;;;22.10;43.60;;;;;;5066345;28;20055;-71
2023/12/04 05:35:53;;;;;;;25.52;10.63;;;22.00;43.50;;;;;;5070944;28;20384;-70
2023/12/04 05:38:19;;;;;;;19.80;10.50;;;22.10;43.70;;;;;;5036526;28;20151;-68
2023/12/04 05:40:45;;;;;;;22.25;11.70;;;22.00;43.70;;;;;;5070357;28;20065;-67
2023/12/04 05:43:11;;;;;;;7.63;5.68;;;22.00;44.30;;;;;;5069086;28;20028;-71
2023/12/04 05:45:39;;;;;;;10.80;6.88;;;22.00;38.00;;;;;;5066658;28;20543;-68
2023/12/04 05:48:05;;;;;;;7.63;5.57;;;22.00;36.80;;;;;;5062149;28;20037;-70
2023/12/04 05:50:32;;;;;;;6.63;5.47;;;22.10;41.20;;;;;;5052608;28;20036;-70
2023/12/04 05:52:58;;;;;;;10.32;6.40;;;22.30;43.40;;;;;;5052662;28;20112;-68
2023/12/04 05:55:24;;;;;;;10.20;6.70;;;22.50;45.10;;;;;;5008046;28;20048;-67
2023/12/04 05:57:51;;;;;;;9.75;6.45;;;22.70;46.90;;;;;;5061273;28;20036;-69
2023/12/04 06:00:18;;;;;;;8.32;6.25;;;22.80;44.60;;;;;;5064964;28;20377;-71
2023/12/04 06:02:45;;;;;;;9.80;6.70;;;22.60;41.60;;;;;;5059950;28;20032;-68
2023/12/04 06:05:11;;;;;;;7.20;5.45;;;22.70;41.00;;;;;;5062476;28;20037;-68
2023/12/04 06:07:37;;;;;;;7.03;5.70;;;22.70;41.70;;;;;;5059597;28;20051;-70
2023/12/04 06:10:07;;;;;;;9.02;5.60;;;22.70;41.30;;;;;;5058836;28;20059;-70
2023/12/04 06:12:33;;;;;;;18.30;11.00;;;22.70;40.70;;;;;;5063463;28;20490;-69
2023/12/04 06:15:00;;;;;;;19.60;11.23;;;22.80;48.20;;;;;;5060175;28;20048;-67
2023/12/04 06:17:27;;;;;;;18.98;10.05;;;22.80;49.60;;;;;;5058987;28;20095;-67
2023/12/04 06:19:53;;;;;;;16.60;10.10;;;22.80;49.10;;;;;;5051567;28;20104;-70
2023/12/04 06:22:21;;;;;;;17.00;10.15;;;22.90;48.60;;;;;;5041168;28;20381;-68
2023/12/04 06:24:48;;;;;;;15.68;8.90;;;22.80;48.40;;;;;;5057390;28;20888;-68
2023/12/04 06:27:18;;;;;;;15.77;10.35;;;22.80;48.70;;;;;;5052263;28;20571;-68
2023/12/04 06:29:44;;;;;;;16.67;10.38;;;22.80;49.10;;;;;;5055205;28;20060;-70
2023/12/04 06:32:12;;;;;;;15.07;9.75;;;22.70;49.50;;;;;;5071193;28;20020;-71
2023/12/04 06:34:38;;;;;;;20.70;11.05;;;22.70;49.90;;;;;;5065081;28;20503;-68
2023/12/04 06:37:12;;;;;;;28.95;14.13;;;22.60;50.20;;;;;;5047600;28;20035;-70
2023/12/04 06:39:40;;;;;;;32.08;14.77;;;22.50;50.50;;;;;;5056797;28;20055;-71
2023/12/04 06:42:07;;;;;;;26.58;15.32;;;22.50;51.00;;;;;;5022895;28;20041;-69
2023/12/04 06:44:34;;;;;;;24.58;16.10;;;22.50;51.40;;;;;;5030037;28;20419;-71
2023/12/04 06:47:04;;;;;;;20.13;12.23;;;22.60;51.50;;;;;;5061569;28;20037;-70
2023/12/04 06:49:32;;;;;;;18.60;9.48;;;22.40;52.90;;;;;;5053045;28;20157;-70
2023/12/04 06:51:59;;;;;;;16.33;9.00;;;22.60;53.90;;;;;;5050039;28;20024;-71
2023/12/04 06:54:26;;;;;;;13.52;7.30;;;22.50;53.10;;;;;;5065521;28;20032;-71
2023/12/04 06:56:52;;;;;;;17.48;9.88;;;22.50;53.00;;;;;;5054580;28;20032;-75
2023/12/04 06:59:19;;;;;;;18.15;9.70;;;22.50;52.90;;;;;;5059623;28;20133;-69
2023/12/04 07:01:45;;;;;;;19.75;10.27;;;22.70;53.00;;;;;;5061340;28;20029;-70
2023/12/04 07:04:12;;;;;;;25.13;13.45;;;22.70;52.80;;;;;;5041752;28;20028;-70
2023/12/04 07:06:39;;;;;;;24.10;12.65;;;22.60;52.70;;;;;;5059116;28;20067;-69
2023/12/04 07:09:07;;;;;;;24.13;12.90;;;22.70;52.60;;;;;;5046482;28;20119;-69
2023/12/04 07:11:33;;;;;;;29.80;14.88;;;22.60;52.30;;;;;;5067597;28;20115;-69
2023/12/04 07:13:59;;;;;;;25.15;14.25;;;22.60;52.00;;;;;;5053458;28;20116;-67
2023/12/04 07:16:25;;;;;;;22.75;12.35;;;22.50;51.90;;;;;;5052855;28;20120;-69
2023/12/04 07:18:51;;;;;;;29.60;16.58;;;22.60;51.90;;;;;;5070852;28;20044;-69
2023/12/04 07:21:17;;;;;;;33.17;17.50;;;22.50;51.80;;;;;;5068956;28;20084;-69
2023/12/04 07:23:43;;;;;;;24.48;14.05;;;22.50;51.70;;;;;;5055588;28;20044;-69
2023/12/04 07:26:09;;;;;;;30.33;16.00;;;22.50;51.80;;;;;;5051401;28;20059;-69
2023/12/04 07:28:36;;;;;;;23.83;14.48;;;22.30;51.70;;;;;;5050542;28;20090;-68
2023/12/04 07:31:02;;;;;;;26.73;15.95;;;22.30;51.70;;;;;;5000308;28;20048;-69
2023/12/04 07:33:29;;;;;;;31.20;19.08;;;22.40;51.70;;;;;;5050580;28;20075;-68
2023/12/04 07:35:55;;;;;;;28.73;17.50;;;22.30;51.70;;;;;;5050516;28;20548;-68
2023/12/04 07:38:21;;;;;;;27.15;15.70;;;22.30;51.70;;;;;;5050570;28;20111;-68
2023/12/04 07:40:47;;;;;;;23.75;15.63;;;22.20;51.50;;;;;;5017182;28;20033;-68
2023/12/04 07:43:14;;;;;;;28.70;15.93;;;22.30;51.70;;;;;;5050633;28;20041;-67
2023/12/04 07:45:41;;;;;;;23.35;14.00;;;22.30;51.60;;;;;;5051816;28;20037;-69
2023/12/04 07:48:07;;;;;;;24.33;13.55;;;22.20;51.60;;;;;;5032506;28;20072;-69
2023/12/04 07:50:33;;;;;;;21.85;13.05;;;22.20;51.50;;;;;;5051669;28;20060;-68
2023/12/04 07:52:59;;;;;;;25.40;13.88;;;22.20;51.40;;;;;;5050157;28;20033;-68
2023/12/04 07:55:25;;;;;;;23.90;13.48;;;22.30;51.50;;;;;;5056370;28;20028;-68
2023/12/04 07:57:51;;;;;;;28.13;13.70;;;22.30;51.40;;;;;;5052350;28;20032;-69
2023/12/04 08:00:18;;;;;;;29.02;14.13;;;22.30;51.30;;;;;;5070675;28;20455;-69
2023/12/04 08:02:45;;;;;;;29.88;13.23;;;22.30;51.20;;;;;;5074545;28;20033;-68
2023/12/04 08:05:12;;;;;;;19.95;11.85;;;22.20;50.90;;;;;;5068653;28;20048;-68
2023/12/04 08:07:38;;;;;;;19.92;11.45;;;22.20;50.90;;;;;;5027350;28;20071;-69
2023/12/04 08:10:06;;;;;;;20.85;11.32;;;22.40;51.00;;;;;;5069457;28;20499;-68
2023/12/04 08:12:33;;;;;;;18.27;10.13;;;22.30;50.90;;;;;;5043996;28;20025;-66
2023/12/04 08:15:01;;;;;;;22.00;10.57;;;22.30;50.70;;;;;;5055533;28;20033;-68
2023/12/04 08:17:27;;;;;;;21.38;10.38;;;22.40;50.70;;;;;;5043016;28;20049;-71
2023/12/04 08:19:54;;;;;;;14.10;10.35;;;22.30;50.80;;;;;;5060575;28;20033;-70
2023/12/04 08:22:20;;;;;;;14.70;10.25;;;22.30;50.80;;;;;;5058963;28;20047;-68
2023/12/04 08:24:46;;;;;;;23.00;10.65;;;22.30;50.70;;;;;;5065837;28;20082;-69
2023/12/04 08:27:13;;;;;;;17.85;10.60;;;22.10;50.50;;;;;;5066177;28;20037;-69
2023/12/04 08:29:42;;;;;;;20.67;11.30;;;22.10;50.30;;;;;;5068394;28;20032;-68
2023/12/04 08:32:08;;;;;;;16.38;10.73;;;22.10;50.30;;;;;;5050220;28;20036;-68
2023/12/04 08:34:34;;;;;;;19.35;11.43;;;22.10;50.30;;;;;;5069116;28;20132;-68
2023/12/04 08:37:00;;;;;;;18.92;10.35;;;22.10;50.30;;;;;;5073311;28;20024;-68
2023/12/04 08:39:26;;;;;;;17.30;10.30;;;22.00;50.20;;;;;;5068478;28;20040;-69
2023/12/04 08:41:52;;;;;;;15.30;9.13;;;22.10;50.40;;;;;;5071514;28;20041;-69
2023/12/04 08:44:21;;;;;;;14.13;8.77;;;22.00;50.40;;;;;;5060260;28;20036;-70
2023/12/04 08:46:47;;;;;;;13.85;9.20;;;22.00;50.20;;;;;;5057945;28;20037;-67
2023/12/04 08:49:13;;;;;;;18.38;9.57;;;22.10;50.30;;;;;;5053173;28;20472;-69
2023/12/04 08:51:39;;;;;;;16.10;9.07;;;22.10;50.30;;;;;;5053336;28;20037;-68
2023/12/04 08:54:07;;;;;;;15.73;9.63;;;22.20;50.30;;;;;;5054519;28;20192;-68
2023/12/04 08:56:33;;;;;;;17.20;9.07;;;22.10;50.30;;;;;;5055756;28;20033;-68
2023/12/04 08:58:59;;;;;;;15.82;9.65;;;22.10;50.30;;;;;;5057644;28;20024;-69
2023/12/04 09:01:25;;;;;;;22.38;11.10;;;22.20;50.30;;;;;;5060214;28;20064;-69
2023/12/04 09:03:52;;;;;;;16.40;9.45;;;22.20;50.30;;;;;;5066093;28;20048;-69
2023/12/04 09:06:18;;;;;;;15.18;10.75;;;22.20;50.30;;;;;;5061689;28;20028;-69
2023/12/04 09:08:44;;;;;;;14.43;9.68;;;22.20;50.30;;;;;;5054804;28;20119;-69
2023/12/04 09:11:10;;;;;;;14.13;8.55;;;22.30;50.40;;;;;;5071021;28;20107;-69
2023/12/04 09:13:37;;;;;;;14.07;9.60;;;22.10;50.30;;;;;;5072981;28;20401;-69
2023/12/04 09:16:03;;;;;;;15.00;9.18;;;22.10;50.20;;;;;;5069731;28;20143;-69
2023/12/04 09:18:29;;;;;;;8.23;5.25;;;22.20;50.10;;;;;;5072642;28;20032;-70
2023/12/04 09:20:55;;;;;;;9.35;4.53;;;22.20;50.10;;;;;;5072712;28;20123;-69
2023/12/04 09:23:21;;;;;;;6.93;3.90;;;22.30;50.20;;;;;;5072607;28;20039;-68
2023/12/04 09:25:47;;;;;;;5.47;3.90;;;22.30;50.30;;;;;;5057235;28;20037;-69
2023/12/04 09:28:13;;;;;;;6.40;3.85;;;22.40;50.20;;;;;;5052347;28;20048;-68
2023/12/04 09:30:39;;;;;;;6.15;3.78;;;22.40;50.20;;;;;;5058238;28;20043;-70
2023/12/04 09:33:06;;;;;;;8.45;3.88;;;22.30;50.10;;;;;;5072657;28;20170;-69
2023/12/04 09:35:32;;;;;;;7.18;4.18;;;22.40;50.00;;;;;;5067737;28;20079;-69
2023/12/04 09:37:58;;;;;;;5.00;3.55;;;22.30;49.90;;;;;;5072520;28;20079;-69
2023/12/04 09:40:24;;;;;;;7.07;3.58;;;22.30;49.80;;;;;;5062702;28;20037;-69
2023/12/04 09:42:51;;;;;;;17.13;9.70;;;22.40;49.70;;;;;;5053544;28;20040;-67
2023/12/04 09:45:18;;;;;;;10.25;7.75;;;22.30;49.50;;;;;;5057917;28;20379;-69
2023/12/04 09:47:45;;;;;;;17.10;9.60;;;22.30;49.30;;;;;;5057325;28;20091;-69
2023/12/04 09:50:11;;;;;;;14.43;8.52;;;22.30;49.20;;;;;;5072446;28;20028;-70
2023/12/04 09:52:37;;;;;;;18.25;10.13;;;22.40;49.30;;;;;;5052796;28;20047;-69
2023/12/04 09:55:05;;;;;;;13.77;8.18;;;22.30;49.30;;;;;;5034756;28;20382;-69
2023/12/04 09:57:31;;;;;;;16.10;8.48;;;22.50;49.50;;;;;;5072071;28;20029;-69
2023/12/04 10:00:00;;;;;;;15.40;9.13;;;22.30;49.60;;;;;;5070068;28;20122;-69
2023/12/04 10:02:26;;;;;;;14.70;8.23;;;22.30;49.80;;;;;;5000323;28;20120;-69
2023/12/04 10:04:52;;;;;;;10.57;7.60;;;22.40;50.00;;;;;;5042390;28;20112;-69
2023/12/04 10:07:19;;;;;;;13.38;8.90;;;22.50;50.30;;;;;;5071258;28;20044;-69
2023/12/04 10:09:45;;;;;;;15.13;8.43;;;22.40;50.40;;;;;;5070006;28;20036;-69
2023/12/04 10:12:11;;;;;;;16.42;8.70;;;22.50;50.70;;;;;;5067592;28;20056;-68
2023/12/04 10:14:37;;;;;;;14.45;7.22;;;22.50;50.90;;;;;;5051217;28;20072;-68
2023/12/04 10:17:19;;;;;;;10.93;6.97;;;22.50;51.10;;;;;;5034982;28;20029;-69
2023/12/04 10:19:45;;;;;;;11.40;7.43;;;22.50;51.40;;;;;;5051394;28;20396;-68
2023/12/04 10:22:13;;;;;;;14.15;7.70;;;22.50;51.60;;;;;;5050910;28;20048;-69
2023/12/04 10:24:40;;;;;;;12.55;8.40;;;22.50;51.80;;;;;;5059250;28;20486;-69
2023/12/04 10:27:17;;;;;;;14.25;7.57;;;22.60;51.80;;;;;;5071162;28;20048;-68
2023/12/04 10:29:47;;;;;;;10.65;6.60;;;22.40;51.70;;;;;;5071373;28;20764;-69
2023/12/04 10:32:13;;;;;;;9.95;7.15;;;22.50;51.90;;;;;;5052315;28;20029;-68
2023/12/04 10:34:42;;;;;;;13.68;8.52;;;22.50;51.80;;;;;;5052539;28;20033;-68
2023/12/04 10:37:10;;;;;;;9.68;6.65;;;22.60;51.80;;;;;;5051261;28;20029;-69
2023/12/04 10:40:08;;;;;;;12.55;6.80;;;22.50;51.70;;;;;;5050999;28;20086;-68
2023/12/04 10:42:34;;;;;;;13.80;6.95;;;22.50;51.60;;;;;;4950729;29;20094;-68
2023/12/04 10:45:00;;;;;;;10.13;7.38;;;22.50;51.60;;;;;;4951193;28;20050;-68
2023/12/04 10:47:30;;;;;;;11.52;7.13;;;22.60;51.60;;;;;;4965449;28;20504;-68
2023/12/04 10:49:57;;;;;;;9.93;7.13;;;22.60;51.40;;;;;;4964113;28;20542;-68
2023/12/04 10:52:23;;;;;;;12.05;6.22;;;22.60;51.40;;;;;;4969752;28;20091;-68
2023/12/04 10:54:49;;;;;;;10.20;6.15;;;22.50;51.20;;;;;;4968113;28;20886;-68
2023/12/04 10:57:35;;;;;;;7.47;6.32;;;22.60;51.10;;;;;;4969723;28;20046;-68
2023/12/04 11:00:06;;;;;;;8.75;5.68;;;22.60;51.10;;;;;;4969524;28;20094;-68
2023/12/04 11:02:34;;;;;;;9.40;6.93;;;22.60;51.10;;;;;;4964987;28;20031;-68
2023/12/04 11:05:13;;;;;;;11.40;7.32;;;22.70;51.20;;;;;;4961021;28;20047;-68
2023/12/04 11:07:44;;;;;;;9.48;6.35;;;22.60;51.10;;;;;;4964549;28;20084;-68
2023/12/04 11:10:12;;;;;;;10.68;6.85;;;22.50;51.00;;;;;;4958704;28;20042;-68
2023/12/04 11:12:42;;;;;;;7.70;5.75;;;22.50;51.10;;;;;;4950437;29;20050;-68
2023/12/04 11:15:10;;;;;;;7.90;6.18;;;22.60;51.10;;;;;;4968900;28;20074;-69
2023/12/04 11:17:38;;;;;;;8.30;5.63;;;22.60;51.10;;;;;;4989438;28;20036;-69
2023/12/04 11:20:13;;;;;;;8.82;6.68;;;22.40;51.10;;;;;;5080270;28;20036;-68
2023/12/04 11:22:40;;;;;;;11.43;6.25;;;22.40;51.10;;;;;;5073782;28;20064;-68
2023/12/04 11:25:08;;;;;;;12.10;7.78;;;22.50;51.10;;;;;;5079631;28;20043;-69
2023/12/04 11:27:35;;;;;;;10.07;6.07;;;22.50;51.40;;;;;;5072222;28;20052;-69
2023/12/04 11:30:06;;;;;;;8.02;5.13;;;22.40;50.60;;;;;;5088106;28;20475;-67
2023/12/04 11:32:43;;;;;;;19.63;6.25;;;22.60;49.10;;;;;;5076588;28;20045;-64
2023/12/04 11:35:14;;;;;;;9.07;6.10;;;22.60;49.10;;;;;;5087919;28;20029;-66
2023/12/04 11:37:43;;;;;;;8.73;6.50;;;22.80;47.30;;;;;;5083125;28;20459;-66
2023/12/04 11:40:12;;;;;;;9.35;5.70;;;22.60;44.40;;;;;;5080190;28;20025;-67
2023/12/04 11:42:39;;;;;;;9.50;5.43;;;22.60;44.20;;;;;;5075631;28;20460;-66
2023/12/04 11:45:05;;;;;;;10.25;6.93;;;22.60;45.20;;;;;;5087327;28;20079;-68
2023/12/04 11:47:49;;;;;;;11.05;6.35;;;22.80;44.80;;;;;;5084352;28;20037;-65
2023/12/04 11:50:16;;;;;;;9.50;5.82;;;22.80;43.50;;;;;;5045740;28;20407;-66
2023/12/04 11:52:42;;;;;;;7.38;5.47;;;22.90;43.50;;;;;;5092624;28;20131;-66
2023/12/04 11:55:09;;;;;;;19.10;7.20;;;22.80;45.20;;;;;;5091395;28;20728;-67
2023/12/04 11:57:36;;;;;;;9.73;5.88;;;22.90;42.90;;;;;;5094688;28;20032;-66
2023/12/04 12:00:22;;;;;;;10.57;5.63;;;23.10;46.50;;;;;;5088423;28;20380;-68
2023/12/04 12:02:53;;;;;;;7.78;5.70;;;23.10;44.10;;;;;;5074093;28;20060;-68
2023/12/04 12:05:20;;;;;;;8.50;5.70;;;23.20;41.50;;;;;;5075353;28;20020;-68
2023/12/04 12:07:47;;;;;;;8.00;5.40;;;23.20;41.50;;;;;;5074542;28;20052;-68
2023/12/04 12:10:13;;;;;;;11.23;5.78;;;23.40;40.90;;;;;;5091995;28;20035;-68
2023/12/04 12:12:40;;;;;;;6.65;5.47;;;23.40;42.60;;;;;;5081521;28;20027;-67
2023/12/04 12:15:11;;;;;;;7.15;5.30;;;23.50;45.00;;;;;;5079102;28;20121;-68
2023/12/04 12:17:41;;;;;;;8.60;5.78;;;23.70;43.70;;;;;;5067371;28;20102;-69
2023/12/04 12:20:14;;;;;;;14.40;8.02;;;23.60;42.50;;;;;;5038750;28;20037;-68
2023/12/04 12:22:41;;;;;;;;;;;23.70;45.20;;;;;;5036544;28;20039;-68
2023/12/04 12:25:08;;;;;;;11.05;7.47;;;23.80;46.50;;;;;;5054388;28;19916;-67
2023/12/04 12:27:34;;;;;;;12.98;8.82;;;23.90;46.90;;;;;;5065714;28;20419;-69
2023/12/04 12:30:03;;;;;;;14.68;7.95;;;24.10;47.30;;;;;;5071528;28;20161;-68
2023/12/04 12:32:29;;;;;;;13.40;8.82;;;23.90;47.40;;;;;;5070079;28;20028;-67
2023/12/04 12:34:55;;;;;;;17.77;8.82;;;23.90;47.50;;;;;;5055393;28;20029;-67